Time;durP1;ratioP1;P1;durP2;ratioP2;P2;SDS_P1;SDS_P2;PMS_P1;PMS_P2;Temp;Humidity;BMP_temperature;BMP_pressure;BME280_temperature;BME280_humidity;BME280_pressure;Samples;Min_cycle;Max_cycle;Signal;HPM_P1;HPM_P2
2022/06/03 00:02:22;;;;;;;5.90;4.10;;;;;;;;;;5117628;28;20478;-71
2022/06/03 00:05:09;;;;;;;5.00;3.70;;;;;;;;;;5118567;28;20520;-71
2022/06/03 00:07:46;;;;;;;4.90;3.13;;;;;;;;;;5118297;28;20443;-71
2022/06/03 00:10:26;;;;;;;5.13;3.80;;;;;;;;;;5119045;28;20447;-70
2022/06/03 00:13:00;;;;;;;5.93;3.70;;;;;;;;;;5118891;28;20482;-70
2022/06/03 00:15:38;;;;;;;4.10;3.40;;;;;;;;;;5118044;28;20455;-72
2022/06/03 00:18:29;;;;;;;6.53;3.50;;;;;;;;;;5118988;28;20545;-72
2022/06/03 00:21:01;;;;;;;5.10;3.30;;;;;;;;;;5118593;28;20985;-72
2022/06/03 00:23:41;;;;;;;7.40;3.80;;;;;;;;;;5118078;28;20462;-72
2022/06/03 00:26:32;;;;;;;7.17;3.53;;;;;;;;;;5116927;28;20462;-71
2022/06/03 00:29:09;;;;;;;4.03;3.03;;;;;;;;;;5113823;28;20486;-71
2022/06/03 00:31:49;;;;;;;4.40;3.03;;;;;;;;;;5117761;28;20761;-71
2022/06/03 00:34:27;;;;;;;4.90;3.50;;;;;;;;;;5118383;28;20525;-71
2022/06/03 00:37:01;;;;;;;6.10;3.90;;;;;;;;;;5117711;28;20485;-70
2022/06/03 00:39:37;;;;;;;3.27;2.60;;;;;;;;;;5117775;28;20547;-71
2022/06/03 00:42:13;;;;;;;5.63;3.67;;;;;;;;;;5118028;28;20804;-71
2022/06/03 00:44:54;;;;;;;4.67;3.50;;;;;;;;;;5118699;28;20467;-72
2022/06/03 00:47:28;;;;;;;4.10;2.93;;;;;;;;;;5117085;28;20473;-71
2022/06/03 00:50:05;;;;;;;5.33;3.17;;;;;;;;;;5118418;28;20482;-71
2022/06/03 00:52:53;;;;;;;6.00;4.00;;;;;;;;;;5118226;28;20478;-72
2022/06/03 00:55:33;;;;;;;5.67;4.40;;;;;;;;;;5118308;28;20882;-72
2022/06/03 00:58:09;;;;;;;6.37;3.80;;;;;;;;;;5118784;28;20518;-72
2022/06/03 01:00:41;;;;;;;8.20;4.67;;;;;;;;;;5118817;28;20525;-71
2022/06/03 01:03:14;;;;;;;5.63;3.80;;;;;;;;;;5118693;28;20451;-72
2022/06/03 01:05:53;;;;;;;6.60;3.30;;;;;;;;;;5119283;28;21019;-71
2022/06/03 01:08:24;;;;;;;5.00;4.50;;;;;;;;;;5097981;28;20451;-71
2022/06/03 01:11:07;;;;;;;4.87;3.10;;;;;;;;;;5097993;28;20448;-72
2022/06/03 01:13:47;;;;;;;5.90;3.33;;;;;;;;;;5096679;28;20439;-71
2022/06/03 01:16:22;;;;;;;4.80;3.77;;;;;;;;;;5097532;28;20520;-71
2022/06/03 01:18:58;;;;;;;4.47;2.97;;;;;;;;;;5097606;28;20727;-71
2022/06/03 01:21:35;;;;;;;4.53;3.00;;;;;;;;;;5098046;28;20762;-71
2022/06/03 01:24:18;;;;;;;4.73;2.67;;;;;;;;;;5097795;28;20443;-71
2022/06/03 01:27:03;;;;;;;5.53;2.77;;;;;;;;;;5097603;28;20524;-71
2022/06/03 01:29:39;;;;;;;6.33;2.90;;;;;;;;;;5097504;28;20455;-71
2022/06/03 01:32:28;;;;;;;5.00;3.00;;;;;;;;;;5097422;28;20451;-71
2022/06/03 01:35:16;;;;;;;4.47;3.30;;;;;;;;;;5090554;28;20471;-71
2022/06/03 01:37:48;;;;;;;5.93;3.20;;;;;;;;;;5116280;28;20456;-70
2022/06/03 01:40:25;;;;;;;5.93;3.50;;;;;;;;;;5117023;28;20549;-71
2022/06/03 01:43:03;;;;;;;5.07;3.00;;;;;;;;;;5117604;28;20446;-71
2022/06/03 01:45:45;;;;;;;6.50;3.77;;;;;;;;;;5116482;28;20454;-71
2022/06/03 01:48:20;;;;;;;4.90;3.37;;;;;;;;;;5114932;28;20458;-71
2022/06/03 01:51:04;;;;;;;3.73;2.73;;;;;;;;;;5117325;28;20465;-72
2022/06/03 01:53:52;;;;;;;6.00;3.10;;;;;;;;;;5096624;28;20438;-71
2022/06/03 01:56:28;;;;;;;5.50;3.20;;;;;;;;;;5090940;28;20452;-72
2022/06/03 01:59:13;;;;;;;5.63;3.33;;;;;;;;;;5096956;28;20439;-72
2022/06/03 02:02:14;;;;;;;9.23;4.50;;;;;;;;;;5095981;28;20915;-72
2022/06/03 02:04:56;;;;;;;5.60;3.50;;;;;;;;;;5096222;28;20462;-71
2022/06/03 02:07:43;;;;;;;5.37;3.43;;;;;;;;;;5096745;28;20862;-71
2022/06/03 02:10:25;;;;;;;4.60;3.47;;;;;;;;;;5096732;28;20731;-71
2022/06/03 02:13:12;;;;;;;5.23;4.10;;;;;;;;;;5095808;28;20465;-72
2022/06/03 02:15:49;;;;;;;4.23;3.40;;;;;;;;;;5096958;28;20517;-71
2022/06/03 02:18:26;;;;;;;4.30;3.27;;;;;;;;;;5096461;28;20890;-71
2022/06/03 02:21:18;;;;;;;4.40;3.63;;;;;;;;;;5096128;28;20487;-72
2022/06/03 02:24:01;;;;;;;6.10;3.47;;;;;;;;;;5096236;28;20457;-71
2022/06/03 02:26:47;;;;;;;3.60;2.70;;;;;;;;;;5100132;28;20467;-71
2022/06/03 02:32:35;;;;;;;3.60;2.77;;;;;;;;;;5110934;28;20491;-71
2022/06/03 02:35:26;;;;;;;3.93;2.70;;;;;;;;;;5120091;28;20850;-71
2022/06/03 02:38:08;;;;;;;6.67;3.40;;;;;;;;;;5105164;28;20734;-72
2022/06/03 02:40:58;;;;;;;4.80;3.90;;;;;;;;;;5119896;28;20551;-71
2022/06/03 02:43:37;;;;;;;4.00;3.00;;;;;;;;;;5120061;28;20458;-71
2022/06/03 02:46:29;;;;;;;4.20;3.43;;;;;;;;;;5120352;28;20827;-71
2022/06/03 02:49:21;;;;;;;5.57;3.63;;;;;;;;;;5119712;28;20461;-72
2022/06/03 02:52:01;;;;;;;5.27;3.17;;;;;;;;;;5120428;28;20443;-71
2022/06/03 02:54:46;;;;;;;3.43;3.10;;;;;;;;;;5119580;28;20515;-72
2022/06/03 02:57:29;;;;;;;4.70;3.00;;;;;;;;;;5079670;28;20469;-71
2022/06/03 03:00:16;;;;;;;7.20;3.77;;;;;;;;;;5119922;28;20462;-71
2022/06/03 03:03:08;;;;;;;4.60;3.23;;;;;;;;;;5119440;28;20474;-72
2022/06/03 03:05:51;;;;;;;8.03;4.10;;;;;;;;;;5099850;28;21045;-71
2022/06/03 03:08:37;;;;;;;5.43;4.40;;;;;;;;;;5119819;28;20446;-71
2022/06/03 03:11:18;;;;;;;6.03;3.60;;;;;;;;;;5120054;28;20512;-71
2022/06/03 03:14:00;;;;;;;4.90;3.60;;;;;;;;;;5119080;28;20478;-71
2022/06/03 03:16:36;;;;;;;4.33;2.93;;;;;;;;;;5106306;28;20466;-71
2022/06/03 03:19:25;;;;;;;5.00;3.27;;;;;;;;;;5119247;28;20534;-71
2022/06/03 03:22:11;;;;;;;3.67;2.73;;;;;;;;;;5118914;28;20490;-72
2022/06/03 03:24:59;;;;;;;4.30;3.40;;;;;;;;;;5078738;28;20993;-72
2022/06/03 03:27:35;;;;;;;5.30;3.43;;;;;;;;;;5119936;28;20890;-71
2022/06/03 03:30:12;;;;;;;5.73;2.97;;;;;;;;;;5118908;28;20542;-71
2022/06/03 03:33:00;;;;;;;3.83;2.80;;;;;;;;;;5118476;28;20450;-72
2022/06/03 03:35:49;;;;;;;5.27;4.37;;;;;;;;;;5112790;28;20486;-71
2022/06/03 03:38:41;;;;;;;4.67;3.70;;;;;;;;;;5118150;28;20446;-71
2022/06/03 03:41:23;;;;;;;5.07;3.20;;;;;;;;;;5118618;28;20462;-70
2022/06/03 03:44:07;;;;;;;6.43;3.50;;;;;;;;;;5118925;28;20478;-71
2022/06/03 03:46:52;;;;;;;3.70;2.87;;;;;;;;;;5118415;28;20832;-71
2022/06/03 03:49:49;;;;;;;4.60;3.00;;;;;;;;;;5119024;28;20450;-72
2022/06/03 03:52:34;;;;;;;4.30;3.30;;;;;;;;;;5118763;28;20723;-71
2022/06/03 03:55:20;;;;;;;4.70;3.27;;;;;;;;;;5113231;28;21105;-71
2022/06/03 03:58:10;;;;;;;5.87;3.43;;;;;;;;;;5099779;28;20538;-71
2022/06/03 04:01:11;;;;;;;4.63;3.40;;;;;;;;;;5118819;28;20885;-71
2022/06/03 04:03:53;;;;;;;6.07;3.53;;;;;;;;;;5035699;28;20446;-71
2022/06/03 04:06:33;;;;;;;4.60;3.23;;;;;;;;;;5035386;28;20476;-72
2022/06/03 04:09:08;;;;;;;5.47;3.73;;;;;;;;;;5087553;28;20462;-71
2022/06/03 04:11:54;;;;;;;8.03;4.80;;;;;;;;;;5117848;28;20495;-71
2022/06/03 04:14:34;;;;;;;4.80;3.13;;;;;;;;;;5117649;28;20458;-72
2022/06/03 04:17:27;;;;;;;6.33;4.47;;;;;;;;;;5118121;28;20522;-72
2022/06/03 04:20:12;;;;;;;6.20;4.07;;;;;;;;;;5118288;28;20481;-71
2022/06/03 04:22:59;;;;;;;6.57;4.33;;;;;;;;;;5117468;28;20940;-71
2022/06/03 04:25:40;;;;;;;6.60;4.20;;;;;;;;;;5097090;28;20926;-70
2022/06/03 04:28:20;;;;;;;5.30;4.00;;;;;;;;;;5095757;28;20884;-72
2022/06/03 04:31:06;;;;;;;5.33;3.73;;;;;;;;;;5095814;28;20551;-72
2022/06/03 04:33:53;;;;;;;8.10;4.90;;;;;;;;;;4995004;28;20472;-72
2022/06/03 04:36:59;;;;;;;5.57;4.13;;;;;;;;;;5094581;28;20464;-71
2022/06/03 04:39:48;;;;;;;5.00;3.70;;;;;;;;;;5096388;28;20466;-72
2022/06/03 04:42:30;;;;;;;6.37;4.00;;;;;;;;;;5095931;28;20479;-72
2022/06/03 04:45:20;;;;;;;4.73;3.80;;;;;;;;;;5097020;28;20754;-72
2022/06/03 04:48:06;;;;;;;4.30;3.63;;;;;;;;;;5096777;28;20513;-72
2022/06/03 04:51:02;;;;;;;6.87;4.17;;;;;;;;;;5079186;28;20549;-71
2022/06/03 04:54:04;;;;;;;8.00;4.57;;;;;;;;;;5097644;28;20440;-71
2022/06/03 04:56:50;;;;;;;6.10;4.30;;;;;;;;;;5117726;28;20446;-72
2022/06/03 04:59:32;;;;;;;6.07;3.73;;;;;;;;;;5117349;28;20473;-72
2022/06/03 05:02:16;;;;;;;6.80;3.40;;;;;;;;;;5116108;28;20775;-71
2022/06/03 05:05:06;;;;;;;4.80;3.30;;;;;;;;;;5116315;28;20457;-71
2022/06/03 05:08:00;;;;;;;4.20;3.40;;;;;;;;;;5115988;28;20493;-72
2022/06/03 05:10:46;;;;;;;9.73;4.13;;;;;;;;;;5114343;28;20439;-71
2022/06/03 05:13:37;;;;;;;5.50;3.77;;;;;;;;;;5076360;28;20900;-71
2022/06/03 05:16:21;;;;;;;7.40;3.80;;;;;;;;;;5114948;28;20465;-72
2022/06/03 05:19:10;;;;;;;6.90;3.90;;;;;;;;;;5112461;28;20773;-72
2022/06/03 05:21:55;;;;;;;8.30;3.73;;;;;;;;;;5114377;28;20455;-71
2022/06/03 05:24:41;;;;;;;6.93;3.77;;;;;;;;;;5114648;28;20470;-70
2022/06/03 05:27:42;;;;;;;4.70;3.50;;;;;;;;;;5114767;28;20554;-71
2022/06/03 05:30:29;;;;;;;8.40;4.60;;;;;;;;;;5094137;28;20447;-72
2022/06/03 05:33:12;;;;;;;5.97;3.83;;;;;;;;;;5094454;28;20447;-71
2022/06/03 05:35:54;;;;;;;5.20;3.43;;;;;;;;;;5093047;28;20482;-71
2022/06/03 05:38:41;;;;;;;10.00;4.57;;;;;;;;;;5093927;28;20535;-72
2022/06/03 05:44:17;;;;;;;9.53;4.03;;;;;;;;;;5113864;28;20942;-71
2022/06/03 05:46:52;;;;;;;8.67;4.50;;;;;;;;;;5113963;28;20763;-71
2022/06/03 05:49:30;;;;;;;10.50;4.47;;;;;;;;;;5114351;28;20574;-71
2022/06/03 05:52:22;;;;;;;8.67;4.10;;;;;;;;;;5113738;28;20442;-71
2022/06/03 05:54:57;;;;;;;8.73;4.23;;;;;;;;;;5098888;28;20458;-71
2022/06/03 05:57:30;;;;;;;5.43;3.43;;;;;;;;;;5113362;28;20518;-70
2022/06/03 06:00:14;;;;;;;7.20;3.87;;;;;;;;;;5114102;28;20454;-71
2022/06/03 06:02:46;;;;;;;8.33;3.10;;;;;;;;;;5097006;28;20991;-71
2022/06/03 06:05:18;;;;;;;6.50;2.90;;;;;;;;;;5098196;28;20500;-71
2022/06/03 06:07:51;;;;;;;5.60;2.80;;;;;;;;;;5097415;28;20466;-71
2022/06/03 06:10:26;;;;;;;7.23;2.90;;;;;;;;;;5096964;28;20480;-71
2022/06/03 06:12:58;;;;;;;4.47;2.20;;;;;;;;;;5097455;28;20470;-71
2022/06/03 06:15:42;;;;;;;6.07;2.07;;;;;;;;;;5097545;28;20443;-71
2022/06/03 06:18:17;;;;;;;5.87;1.93;;;;;;;;;;5096401;28;20473;-71
2022/06/03 06:20:48;;;;;;;5.30;1.93;;;;;;;;;;5115700;28;20454;-71
2022/06/03 06:23:20;;;;;;;9.87;2.07;;;;;;;;;;5117820;28;20754;-71
2022/06/03 06:26:03;;;;;;;6.90;1.87;;;;;;;;;;5117604;28;20450;-71
2022/06/03 06:28:36;;;;;;;4.83;1.80;;;;;;;;;;5117811;28;20893;-71
2022/06/03 06:31:18;;;;;;;10.50;2.33;;;;;;;;;;5117645;28;20458;-71
2022/06/03 06:34:02;;;;;;;5.20;2.70;;;;;;;;;;5117859;28;20446;-71
2022/06/03 06:36:38;;;;;;;9.00;2.13;;;;;;;;;;5117802;28;20477;-71
2022/06/03 06:39:14;;;;;;;7.20;2.20;;;;;;;;;;5112578;28;20543;-72
2022/06/03 06:41:48;;;;;;;6.23;2.00;;;;;;;;;;5114407;28;20458;-71
2022/06/03 06:44:22;;;;;;;5.50;2.20;;;;;;;;;;5117864;28;20905;-71
2022/06/03 06:46:58;;;;;;;2.83;2.37;;;;;;;;;;5117722;28;20454;-71
2022/06/03 06:49:36;;;;;;;5.90;2.33;;;;;;;;;;5115379;28;20453;-71
2022/06/03 06:52:12;;;;;;;4.40;2.17;;;;;;;;;;5116846;28;20718;-70
2022/06/03 06:54:46;;;;;;;5.30;2.07;;;;;;;;;;5118425;28;20523;-71
2022/06/03 06:57:24;;;;;;;6.97;3.00;;;;;;;;;;5116518;28;20590;-71
2022/06/03 06:59:58;;;;;;;6.77;2.70;;;;;;;;;;5116627;28;20458;-71
2022/06/03 07:02:29;;;;;;;8.13;5.20;;;;;;;;;;5115529;28;20569;-71
2022/06/03 07:05:01;;;;;;;5.47;3.00;;;;;;;;;;5117134;28;20431;-71
2022/06/03 07:07:31;;;;;;;6.73;3.93;;;;;;;;;;5116996;28;20454;-72
2022/06/03 07:10:02;;;;;;;4.73;2.80;;;;;;;;;;5116384;28;20537;-71
2022/06/03 07:12:33;;;;;;;5.77;2.50;;;;;;;;;;5115256;28;20455;-72
2022/06/03 07:15:04;;;;;;;4.60;2.20;;;;;;;;;;5112003;28;20457;-70
2022/06/03 07:20:45;;;;;;;5.90;3.00;;;;;;;;;;5116222;28;20444;-70
2022/06/03 07:23:19;;;;;;;6.33;2.30;;;;;;;;;;5116852;28;20477;-72
2022/06/03 07:25:48;;;;;;;4.50;2.00;;;;;;;;;;5117080;28;20931;-72
2022/06/03 07:28:23;;;;;;;4.73;2.40;;;;;;;;;;5103523;28;20455;-71
2022/06/03 07:30:55;;;;;;;4.50;1.70;;;;;;;;;;5096163;28;20463;-71
2022/06/03 07:33:36;;;;;;;5.20;2.00;;;;;;;;;;5097045;28;20513;-71
2022/06/03 07:36:09;;;;;;;4.30;1.47;;;;;;;;;;5100964;28;20466;-71
2022/06/03 07:38:44;;;;;;;7.90;2.20;;;;;;;;;;5117546;28;20446;-71
2022/06/03 07:41:21;;;;;;;5.57;1.80;;;;;;;;;;5115922;28;20476;-71
2022/06/03 07:43:51;;;;;;;4.03;1.77;;;;;;;;;;5096998;28;21020;-71
2022/06/03 07:46:22;;;;;;;4.80;2.10;;;;;;;;;;5115306;28;20851;-71
2022/06/03 07:48:51;;;;;;;4.20;2.10;;;;;;;;;;5115536;28;20482;-71
2022/06/03 07:51:23;;;;;;;4.10;1.83;;;;;;;;;;5097103;28;20807;-70
2022/06/03 07:53:57;;;;;;;5.97;1.70;;;;;;;;;;5115857;28;20862;-72
2022/06/03 07:56:28;;;;;;;8.23;2.03;;;;;;;;;;5114083;28;20871;-71
2022/06/03 07:59:00;;;;;;;3.63;1.70;;;;;;;;;;5115973;28;20476;-71
2022/06/03 08:01:30;;;;;;;5.47;1.77;;;;;;;;;;5115716;28;20450;-71
2022/06/03 08:03:58;;;;;;;5.47;2.70;;;;;;;;;;5098168;28;20494;-71
2022/06/03 08:10:56;;;;;;;3.73;2.10;;;;;;;;;;5112242;28;20447;-70
2022/06/03 08:12:08;;;;;;;6.90;2.43;;;;;;;;;;5094699;28;20497;-71
2022/06/03 08:14:45;;;;;;;9.63;2.17;;;;;;;;;;5094501;28;20455;-71
2022/06/03 08:17:13;;;;;;;4.17;1.80;;;;;;;;;;5110344;27;20876;-71
2022/06/03 08:19:41;;;;;;;4.50;1.70;;;;;;;;;;5115754;27;20595;-71
2022/06/03 08:22:14;;;;;;;4.73;2.20;;;;;;;;;;5114683;28;20463;-72
2022/06/03 08:24:43;;;;;;;7.67;3.27;;;;;;;;;;5115756;27;20511;-72
2022/06/03 08:27:23;;;;;;;4.03;2.20;;;;;;;;;;5114778;27;20811;-71
2022/06/03 08:30:00;;;;;;;5.83;2.53;;;;;;;;;;5112697;27;20482;-71
2022/06/03 08:32:33;;;;;;;3.37;1.67;;;;;;;;;;5111661;27;21124;-73
2022/06/03 08:35:01;;;;;;;3.70;1.80;;;;;;;;;;5117017;27;20772;-72
2022/06/03 08:37:37;;;;;;;5.00;2.00;;;;;;;;;;5113291;27;20507;-73
2022/06/03 08:40:33;;;;;;;2.53;1.73;;;;;;;;;;5095273;28;20504;-72
2022/06/03 08:43:24;;;;;;;3.87;2.03;;;;;;;;;;5094933;28;20479;-73
2022/06/03 08:45:58;;;;;;;3.57;1.90;;;;;;;;;;5095276;28;20455;-72
2022/06/03 08:48:37;;;;;;;4.10;2.13;;;;;;;;;;5094246;28;20455;-72
2022/06/03 08:51:10;;;;;;;3.33;2.00;;;;;;;;;;5118209;27;20495;-71
2022/06/03 08:53:43;;;;;;;4.00;2.10;;;;;;;;;;5135215;27;20456;-71
2022/06/03 08:56:13;;;;;;;6.33;2.27;;;;;;;;;;5110264;27;20546;-73
2022/06/03 08:58:48;;;;;;;5.80;2.43;;;;;;;;;;5135861;27;20442;-71
2022/06/03 09:01:21;;;;;;;3.60;1.93;;;;;;;;;;5126145;27;20451;-72
2022/06/03 09:03:57;;;;;;;5.63;1.77;;;;;;;;;;5134229;27;20801;-72
2022/06/03 09:06:37;;;;;;;4.33;1.50;;;;;;;;;;5135063;27;20534;-72
2022/06/03 09:09:15;;;;;;;5.57;2.67;;;;;;;;;;5134541;27;20459;-73
2022/06/03 09:11:44;;;;;;;2.60;1.60;;;;;;;;;;5134677;27;20472;-74
2022/06/03 09:14:21;;;;;;;3.87;2.07;;;;;;;;;;5134083;27;20506;-74
2022/06/03 09:16:55;;;;;;;22.60;3.77;;;;;;;;;;5135253;27;20453;-71
2022/06/03 09:19:27;;;;;;;2.30;1.30;;;;;;;;;;5123257;27;20469;-72
2022/06/03 09:21:56;;;;;;;8.73;2.20;;;;;;;;;;5113820;28;20446;-73
2022/06/03 09:24:29;;;;;;;4.37;1.83;;;;;;;;;;5111786;28;20491;-75
2022/06/03 09:26:58;;;;;;;2.60;1.53;;;;;;;;;;5110998;28;20455;-73
2022/06/03 09:29:26;;;;;;;3.80;1.63;;;;;;;;;;5113474;28;20451;-73
2022/06/03 09:31:59;;;;;;;4.43;2.33;;;;;;;;;;5098124;27;20456;-72
2022/06/03 09:34:34;;;;;;;6.30;2.10;;;;;;;;;;5103505;27;20474;-72
2022/06/03 09:37:03;;;;;;;3.60;1.80;;;;;;;;;;5127671;27;20549;-73
2022/06/03 09:39:34;;;;;;;5.13;3.20;;;;;;;;;;5111125;28;20850;-72
2022/06/03 09:42:03;;;;;;;3.20;1.80;;;;;;;;;;5102218;28;20472;-72
2022/06/03 09:44:33;;;;;;;6.27;1.80;;;;;;;;;;5099830;28;20479;-71
2022/06/03 09:47:04;;;;;;;3.90;1.70;;;;;;;;;;5101121;28;20893;-72
2022/06/03 09:49:33;;;;;;;5.40;2.23;;;;;;;;;;5111587;28;20439;-72
2022/06/03 09:52:08;;;;;;;4.50;1.93;;;;;;;;;;5113263;28;20462;-72
2022/06/03 09:54:47;;;;;;;3.20;1.30;;;;;;;;;;5112693;28;20486;-71
2022/06/03 09:57:17;;;;;;;3.93;1.70;;;;;;;;;;5112925;28;20446;-70
2022/06/03 09:59:50;;;;;;;5.20;1.60;;;;;;;;;;5116605;28;20484;-71
2022/06/03 10:02:18;;;;;;;3.13;1.70;;;;;;;;;;5113378;28;20886;-70
2022/06/03 10:04:47;;;;;;;4.50;1.70;;;;;;;;;;5113256;28;20478;-71
2022/06/03 10:07:15;;;;;;;3.87;1.63;;;;;;;;;;5113574;28;21036;-70
2022/06/03 10:12:52;;;;;;;3.90;1.97;;;;;;;;;;5114371;28;20449;-72
2022/06/03 10:18:11;;;;;;;3.93;1.77;;;;;;;;;;5097545;28;20570;-72
2022/06/03 10:20:39;;;;;;;3.77;2.03;;;;;;;;;;5111178;28;20465;-72
2022/06/03 10:23:09;;;;;;;2.10;1.30;;;;;;;;;;5113980;28;20480;-73
2022/06/03 10:26:15;;;;;;;3.90;1.67;;;;;;;;;;5107940;28;20458;-73
2022/06/03 10:28:50;;;;;;;2.87;1.53;;;;;;;;;;5112776;28;20857;-72
2022/06/03 10:31:26;;;;;;;4.07;1.67;;;;;;;;;;5108526;28;20493;-73
2022/06/03 10:33:56;;;;;;;2.90;1.50;;;;;;;;;;5111404;28;20481;-73
2022/06/03 10:36:29;;;;;;;2.53;1.23;;;;;;;;;;5108991;28;20478;-72
2022/06/03 10:38:57;;;;;;;3.93;1.70;;;;;;;;;;5096843;28;20458;-71
2022/06/03 10:41:38;;;;;;;3.03;1.40;;;;;;;;;;5112706;28;20462;-74
2022/06/03 10:44:14;;;;;;;2.30;1.60;;;;;;;;;;5113143;28;20482;-73
2022/06/03 10:46:56;;;;;;;3.77;1.30;;;;;;;;;;5103005;28;20443;-72
2022/06/03 10:49:24;;;;;;;2.70;1.40;;;;;;;;;;5101426;28;20462;-73
2022/06/03 11:03:00;;;;;;;4.17;1.60;;;;;;;;;;5116670;28;20539;-73
2022/06/03 11:05:29;;;;;;;6.37;2.50;;;;;;;;;;5115941;28;20486;-72
2022/06/03 11:08:02;;;;;;;1.93;1.03;;;;;;;;;;5116984;28;20451;-72
2022/06/03 11:10:41;;;;;;;2.50;1.47;;;;;;;;;;5107282;28;20471;-73
2022/06/03 11:13:15;;;;;;;3.30;1.70;;;;;;;;;;5113822;28;20472;-73
2022/06/03 11:15:47;;;;;;;5.53;2.10;;;;;;;;;;5115749;28;20454;-72
2022/06/03 11:18:22;;;;;;;2.93;1.63;;;;;;;;;;5116436;28;20497;-73
2022/06/03 11:20:53;;;;;;;4.47;1.97;;;;;;;;;;5111825;28;20506;-72
2022/06/03 11:23:21;;;;;;;6.23;1.90;;;;;;;;;;5116132;28;20538;-73
2022/06/03 11:25:50;;;;;;;3.13;1.90;;;;;;;;;;5115402;28;21031;-73
2022/06/03 11:28:21;;;;;;;5.77;1.60;;;;;;;;;;5116877;28;20465;-72
2022/06/03 11:30:57;;;;;;;4.20;1.40;;;;;;;;;;5115517;28;20489;-73
2022/06/03 11:33:26;;;;;;;4.00;1.73;;;;;;;;;;5116797;28;20457;-72
2022/06/03 11:35:57;;;;;;;2.23;1.43;;;;;;;;;;5115977;28;20454;-72
2022/06/03 11:38:29;;;;;;;4.00;1.90;;;;;;;;;;5114381;28;20467;-71
2022/06/03 11:41:00;;;;;;;3.77;2.07;;;;;;;;;;5107177;28;20480;-71
2022/06/03 11:43:32;;;;;;;3.60;1.93;;;;;;;;;;5120215;28;20458;-71
2022/06/03 11:46:05;;;;;;;3.30;1.40;;;;;;;;;;5116594;28;20468;-73
2022/06/03 11:48:38;;;;;;;3.93;1.97;;;;;;;;;;5120965;28;20451;-72
2022/06/03 11:51:06;;;;;;;3.20;1.47;;;;;;;;;;5097772;28;20542;-72
2022/06/03 11:53:40;;;;;;;3.27;1.60;;;;;;;;;;5114991;28;20493;-73
2022/06/03 11:56:13;;;;;;;3.93;2.30;;;;;;;;;;5121948;27;20451;-72
2022/06/03 11:58:47;;;;;;;10.53;1.80;;;;;;;;;;5115301;28;20455;-72
2022/06/03 12:01:22;;;;;;;3.00;1.80;;;;;;;;;;5116047;28;20851;-71
2022/06/03 12:03:55;;;;;;;2.70;1.47;;;;;;;;;;5114508;28;20486;-73
2022/06/03 12:06:33;;;;;;;4.97;1.80;;;;;;;;;;5100659;28;20841;-74
2022/06/03 12:09:04;;;;;;;3.13;1.40;;;;;;;;;;5107048;28;21069;-73
2022/06/03 12:14:34;;;;;;;5.43;1.67;;;;;;;;;;5110916;28;20438;-73
2022/06/03 12:17:30;;;;;;;4.20;1.80;;;;;;;;;;5112469;28;20796;-72
2022/06/03 12:20:18;;;;;;;4.03;2.30;;;;;;;;;;5113712;27;20467;-72
2022/06/03 12:22:46;;;;;;;5.50;2.00;;;;;;;;;;5113503;27;20443;-72
2022/06/03 12:25:37;;;;;;;2.80;1.63;;;;;;;;;;5114984;27;20876;-72
2022/06/03 12:28:08;;;;;;;4.63;1.87;;;;;;;;;;5114768;27;20474;-72
2022/06/03 12:30:39;;;;;;;3.50;1.53;;;;;;;;;;5100377;28;20452;-73
2022/06/03 12:33:21;;;;;;;3.63;1.60;;;;;;;;;;5112206;28;20882;-73
2022/06/03 12:36:01;;;;;;;6.63;1.90;;;;;;;;;;5102711;27;20504;-72
2022/06/03 12:38:36;;;;;;;6.73;2.00;;;;;;;;;;5102305;28;20459;-72
2022/06/03 12:41:08;;;;;;;7.53;3.33;;;;;;;;;;5113460;28;20743;-72
2022/06/03 12:44:01;;;;;;;2.87;1.70;;;;;;;;;;5110356;28;20520;-72
2022/06/03 12:46:51;;;;;;;3.13;1.60;;;;;;;;;;5112952;27;20511;-72
2022/06/03 12:49:52;;;;;;;4.50;1.60;;;;;;;;;;5112084;28;20720;-72
2022/06/03 12:52:41;;;;;;;2.30;1.63;;;;;;;;;;5105573;28;20955;-73
2022/06/03 12:55:11;;;;;;;6.33;1.50;;;;;;;;;;5104658;28;20456;-72
2022/06/03 12:57:45;;;;;;;3.33;1.67;;;;;;;;;;5095750;28;20730;-72
2022/06/03 13:00:21;;;;;;;3.27;2.30;;;;;;;;;;5108730;28;20760;-73
2022/06/03 13:02:54;;;;;;;3.87;2.20;;;;;;;;;;5104521;28;20442;-73
2022/06/03 13:05:37;;;;;;;4.03;2.00;;;;;;;;;;5115105;28;20486;-73
2022/06/03 13:08:07;;;;;;;5.27;2.03;;;;;;;;;;5113224;27;20439;-73
2022/06/03 13:11:11;;;;;;;3.63;1.80;;;;;;;;;;5109366;28;20492;-73
2022/06/03 13:13:51;;;;;;;5.30;1.50;;;;;;;;;;5111266;28;20504;-72
2022/06/03 13:16:26;;;;;;;4.17;2.83;;;;;;;;;;5115240;28;20466;-73
2022/06/03 13:18:55;;;;;;;5.17;3.40;;;;;;;;;;5115042;28;20507;-73
2022/06/03 13:21:28;;;;;;;2.90;2.30;;;;;;;;;;5091617;28;20444;-73
2022/06/03 13:23:58;;;;;;;5.50;1.60;;;;;;;;;;5106182;28;20447;-71
2022/06/03 13:26:45;;;;;;;7.43;3.17;;;;;;;;;;5112079;27;20463;-71
2022/06/03 13:29:13;;;;;;;3.00;1.13;;;;;;;;;;5111817;28;20494;-72
2022/06/03 13:32:12;;;;;;;3.03;1.43;;;;;;;;;;5114669;28;20856;-72
2022/06/03 13:34:48;;;;;;;3.27;1.43;;;;;;;;;;5112660;28;20498;-73
2022/06/03 13:37:39;;;;;;;5.10;2.00;;;;;;;;;;5114789;28;20539;-73
2022/06/03 13:40:19;;;;;;;2.77;1.60;;;;;;;;;;5108239;28;20576;-72
2022/06/03 13:42:58;;;;;;;2.03;1.17;;;;;;;;;;5114473;28;20917;-72
2022/06/03 13:45:28;;;;;;;3.13;2.10;;;;;;;;;;5104443;28;20475;-72
2022/06/03 13:47:58;;;;;;;2.70;1.40;;;;;;;;;;5096579;28;20451;-72
2022/06/03 13:50:35;;;;;;;2.10;1.20;;;;;;;;;;5106752;28;20494;-72
2022/06/03 13:53:04;;;;;;;2.83;1.60;;;;;;;;;;5112916;28;20450;-73
2022/06/03 13:55:36;;;;;;;2.10;1.20;;;;;;;;;;5112284;28;20894;-74
2022/06/03 13:58:10;;;;;;;3.40;1.80;;;;;;;;;;5113406;28;20537;-73
2022/06/03 14:00:40;;;;;;;3.20;1.40;;;;;;;;;;5113369;28;20461;-73
2022/06/03 14:03:13;;;;;;;2.60;1.57;;;;;;;;;;5112874;28;20492;-73
2022/06/03 14:05:42;;;;;;;2.80;1.50;;;;;;;;;;5114752;28;20474;-73
2022/06/03 14:08:15;;;;;;;3.77;1.33;;;;;;;;;;5113079;28;20815;-73
2022/06/03 14:10:46;;;;;;;3.77;1.80;;;;;;;;;;5114043;28;20459;-73
2022/06/03 14:13:19;;;;;;;2.40;1.40;;;;;;;;;;5114291;28;20454;-73
2022/06/03 14:15:51;;;;;;;3.17;1.50;;;;;;;;;;5112570;28;20739;-72
2022/06/03 14:18:35;;;;;;;3.23;2.13;;;;;;;;;;5112882;28;20491;-73
2022/06/03 14:21:05;;;;;;;3.40;1.50;;;;;;;;;;5113992;28;20473;-71
2022/06/03 14:23:36;;;;;;;4.10;1.40;;;;;;;;;;5101917;28;20447;-71
2022/06/03 14:26:21;;;;;;;2.60;1.77;;;;;;;;;;5112678;28;20543;-72
2022/06/03 14:28:55;;;;;;;3.00;1.50;;;;;;;;;;5115693;28;20442;-72
2022/06/03 14:31:28;;;;;;;6.03;1.77;;;;;;;;;;5117668;28;20455;-71
2022/06/03 14:33:57;;;;;;;2.73;1.40;;;;;;;;;;5116691;28;20515;-71
2022/06/03 14:36:26;;;;;;;2.40;1.70;;;;;;;;;;5117624;28;20462;-71
2022/06/03 14:39:00;;;;;;;2.53;1.80;;;;;;;;;;5117802;28;20864;-73
2022/06/03 14:41:31;;;;;;;3.10;1.63;;;;;;;;;;5118413;28;20878;-72
2022/06/03 14:44:02;;;;;;;4.80;1.63;;;;;;;;;;5115496;28;20459;-72
2022/06/03 14:46:36;;;;;;;2.30;1.53;;;;;;;;;;5117852;27;20479;-72
2022/06/03 14:49:06;;;;;;;5.87;1.57;;;;;;;;;;5117820;28;20553;-72
2022/06/03 14:51:37;;;;;;;2.30;1.20;;;;;;;;;;5118467;28;20470;-72
2022/06/03 14:54:12;;;;;;;2.93;1.40;;;;;;;;;;5111171;28;20450;-72
2022/06/03 14:56:46;;;;;;;3.50;1.57;;;;;;;;;;5117684;28;20502;-72
2022/06/03 14:59:21;;;;;;;2.63;1.73;;;;;;;;;;5116281;28;20486;-71
2022/06/03 15:01:53;;;;;;;2.97;1.33;;;;;;;;;;5096312;28;20498;-72
2022/06/03 15:04:29;;;;;;;3.17;1.47;;;;;;;;;;5096795;27;20475;-72
2022/06/03 15:06:59;;;;;;;3.70;1.93;;;;;;;;;;5110430;28;20920;-72
2022/06/03 15:09:29;;;;;;;2.87;1.87;;;;;;;;;;5112368;28;20459;-71
2022/06/03 15:12:02;;;;;;;3.20;1.83;;;;;;;;;;5101222;28;20458;-72
2022/06/03 15:14:31;;;;;;;2.30;1.47;;;;;;;;;;5109846;28;20466;-73
2022/06/03 15:17:00;;;;;;;3.63;1.70;;;;;;;;;;5114129;28;20443;-71
2022/06/03 15:19:37;;;;;;;5.53;3.63;;;;;;;;;;5111563;28;20459;-72
2022/06/03 15:22:07;;;;;;;3.20;1.60;;;;;;;;;;5111126;28;20458;-71
2022/06/03 15:24:35;;;;;;;4.03;2.10;;;;;;;;;;5116215;28;20486;-72
2022/06/03 15:27:06;;;;;;;4.30;1.83;;;;;;;;;;5115735;28;20450;-72
2022/06/03 15:29:34;;;;;;;4.30;2.70;;;;;;;;;;5116833;28;20535;-71
2022/06/03 15:32:03;;;;;;;3.50;1.80;;;;;;;;;;5114741;28;20459;-71
2022/06/03 15:34:32;;;;;;;3.57;1.60;;;;;;;;;;5115625;28;20474;-71
2022/06/03 15:37:00;;;;;;;3.07;1.83;;;;;;;;;;5116233;28;21029;-71
2022/06/03 15:39:34;;;;;;;2.30;1.50;;;;;;;;;;5111661;28;20943;-71
2022/06/03 15:42:04;;;;;;;2.93;1.50;;;;;;;;;;5116736;28;20447;-71
2022/06/03 15:44:35;;;;;;;2.50;1.70;;;;;;;;;;5114577;28;20462;-72
2022/06/03 15:47:04;;;;;;;3.13;1.23;;;;;;;;;;5098721;28;20856;-73
2022/06/03 15:49:33;;;;;;;4.07;1.20;;;;;;;;;;5096688;28;20531;-72
2022/06/03 15:52:01;;;;;;;3.27;1.50;;;;;;;;;;5115693;28;20913;-73
2022/06/03 15:54:31;;;;;;;3.33;1.43;;;;;;;;;;5116414;28;20442;-72
2022/06/03 15:57:07;;;;;;;2.30;1.40;;;;;;;;;;5101429;28;20516;-73
2022/06/03 15:59:42;;;;;;;8.23;1.80;;;;;;;;;;5093630;28;20447;-72
2022/06/03 16:02:13;;;;;;;2.43;1.40;;;;;;;;;;5092848;28;20428;-72
2022/06/03 16:05:00;;;;;;;3.87;1.77;;;;;;;;;;5109366;28;20516;-72
2022/06/03 16:07:38;;;;;;;2.43;1.30;;;;;;;;;;5117220;28;20513;-72
2022/06/03 16:10:10;;;;;;;3.27;1.80;;;;;;;;;;5116202;28;20480;-72
2022/06/03 16:12:48;;;;;;;4.30;1.90;;;;;;;;;;5115501;28;20523;-73
2022/06/03 16:15:21;;;;;;;3.23;2.30;;;;;;;;;;5116020;28;20450;-72
2022/06/03 16:17:58;;;;;;;2.73;1.30;;;;;;;;;;5115619;28;20469;-73